sensor_id;sensor_type;location;lat;lon;timestamp;P1;durP1;ratioP1;P2;durP2;ratioP2
24401;SDS011;12539;48.808;11.292;2022-07-09T00:00:30;2.25;;;1.17;;
24401;SDS011;12539;48.808;11.292;2022-07-09T00:02:56;1.00;;;0.80;;
24401;SDS011;12539;48.808;11.292;2022-07-09T00:05:21;1.67;;;0.95;;
24401;SDS011;12539;48.808;11.292;2022-07-09T00:07:47;0.90;;;0.73;;
24401;SDS011;12539;48.808;11.292;2022-07-09T00:10:13;1.58;;;0.98;;
24401;SDS011;12539;48.808;11.292;2022-07-09T00:12:38;1.80;;;1.00;;
24401;SDS011;12539;48.808;11.292;2022-07-09T00:15:05;1.40;;;1.00;;
24401;SDS011;12539;48.808;11.292;2022-07-09T00:17:31;1.35;;;1.00;;
24401;SDS011;12539;48.808;11.292;2022-07-09T00:19:57;2.30;;;1.17;;
24401;SDS011;12539;48.808;11.292;2022-07-09T00:22:22;3.13;;;1.10;;
24401;SDS011;12539;48.808;11.292;2022-07-09T00:24:48;1.17;;;0.85;;
24401;SDS011;12539;48.808;11.292;2022-07-09T00:27:14;2.92;;;1.50;;
24401;SDS011;12539;48.808;11.292;2022-07-09T00:29:40;3.13;;;1.20;;
24401;SDS011;12539;48.808;11.292;2022-07-09T00:32:06;1.25;;;0.88;;
24401;SDS011;12539;48.808;11.292;2022-07-09T00:34:32;2.95;;;0.90;;
24401;SDS011;12539;48.808;11.292;2022-07-09T00:36:59;1.60;;;0.90;;
24401;SDS011;12539;48.808;11.292;2022-07-09T00:39:25;2.50;;;1.02;;
24401;SDS011;12539;48.808;11.292;2022-07-09T00:42:01;0.60;;;0.60;;
24401;SDS011;12539;48.808;11.292;2022-07-09T00:44:28;1.80;;;1.00;;
24401;SDS011;12539;48.808;11.292;2022-07-09T00:46:53;1.73;;;0.75;;
24401;SDS011;12539;48.808;11.292;2022-07-09T00:49:19;0.55;;;0.55;;
24401;SDS011;12539;48.808;11.292;2022-07-09T00:51:45;3.22;;;1.10;;
24401;SDS011;12539;48.808;11.292;2022-07-09T00:54:11;1.35;;;0.70;;
24401;SDS011;12539;48.808;11.292;2022-07-09T00:56:38;1.30;;;0.80;;
24401;SDS011;12539;48.808;11.292;2022-07-09T00:59:04;1.92;;;0.82;;
24401;SDS011;12539;48.808;11.292;2022-07-09T01:01:35;1.48;;;0.80;;
24401;SDS011;12539;48.808;11.292;2022-07-09T01:04:01;2.97;;;1.10;;
24401;SDS011;12539;48.808;11.292;2022-07-09T01:06:27;4.10;;;1.02;;
24401;SDS011;12539;48.808;11.292;2022-07-09T01:08:53;3.80;;;1.05;;
24401;SDS011;12539;48.808;11.292;2022-07-09T01:11:18;2.42;;;0.95;;
24401;SDS011;12539;48.808;11.292;2022-07-09T01:13:44;2.30;;;0.88;;
24401;SDS011;12539;48.808;11.292;2022-07-09T01:16:11;1.65;;;1.10;;
24401;SDS011;12539;48.808;11.292;2022-07-09T01:18:38;0.95;;;0.73;;
24401;SDS011;12539;48.808;11.292;2022-07-09T01:21:04;1.48;;;1.05;;
24401;SDS011;12539;48.808;11.292;2022-07-09T01:23:30;2.45;;;1.08;;
24401;SDS011;12539;48.808;11.292;2022-07-09T01:25:56;1.63;;;0.75;;
24401;SDS011;12539;48.808;11.292;2022-07-09T01:28:23;1.63;;;1.10;;
24401;SDS011;12539;48.808;11.292;2022-07-09T01:30:49;1.10;;;0.80;;
24401;SDS011;12539;48.808;11.292;2022-07-09T01:33:14;0.88;;;0.88;;
24401;SDS011;12539;48.808;11.292;2022-07-09T01:35:40;2.70;;;1.20;;
24401;SDS011;12539;48.808;11.292;2022-07-09T01:38:06;2.53;;;1.10;;
24401;SDS011;12539;48.808;11.292;2022-07-09T01:40:32;3.92;;;1.00;;
24401;SDS011;12539;48.808;11.292;2022-07-09T01:42:57;1.02;;;0.77;;
24401;SDS011;12539;48.808;11.292;2022-07-09T01:45:23;5.10;;;3.15;;
24401;SDS011;12539;48.808;11.292;2022-07-09T01:47:49;1.63;;;1.00;;
24401;SDS011;12539;48.808;11.292;2022-07-09T01:50:15;1.10;;;1.00;;
24401;SDS011;12539;48.808;11.292;2022-07-09T01:52:41;1.60;;;0.75;;
24401;SDS011;12539;48.808;11.292;2022-07-09T01:55:06;2.35;;;1.23;;
24401;SDS011;12539;48.808;11.292;2022-07-09T01:57:33;2.00;;;1.10;;
24401;SDS011;12539;48.808;11.292;2022-07-09T01:59:59;2.42;;;1.20;;
24401;SDS011;12539;48.808;11.292;2022-07-09T02:02:24;5.15;;;1.00;;
24401;SDS011;12539;48.808;11.292;2022-07-09T02:04:50;1.65;;;1.17;;
24401;SDS011;12539;48.808;11.292;2022-07-09T02:07:16;1.27;;;1.10;;
24401;SDS011;12539;48.808;11.292;2022-07-09T02:09:42;1.35;;;1.00;;
24401;SDS011;12539;48.808;11.292;2022-07-09T02:12:08;1.38;;;0.90;;
24401;SDS011;12539;48.808;11.292;2022-07-09T02:14:33;2.17;;;1.35;;
24401;SDS011;12539;48.808;11.292;2022-07-09T02:16:59;3.63;;;1.00;;
24401;SDS011;12539;48.808;11.292;2022-07-09T02:19:25;3.65;;;1.00;;
24401;SDS011;12539;48.808;11.292;2022-07-09T02:21:51;1.83;;;1.10;;
24401;SDS011;12539;48.808;11.292;2022-07-09T02:24:16;1.73;;;1.08;;
24401;SDS011;12539;48.808;11.292;2022-07-09T02:26:42;1.30;;;1.08;;
24401;SDS011;12539;48.808;11.292;2022-07-09T02:29:08;1.35;;;0.95;;
24401;SDS011;12539;48.808;11.292;2022-07-09T02:31:34;1.25;;;1.10;;
24401;SDS011;12539;48.808;11.292;2022-07-09T02:33:59;1.42;;;1.23;;
24401;SDS011;12539;48.808;11.292;2022-07-09T02:36:25;1.63;;;1.17;;
24401;SDS011;12539;48.808;11.292;2022-07-09T02:38:51;4.05;;;1.10;;
24401;SDS011;12539;48.808;11.292;2022-07-09T02:41:16;2.97;;;1.00;;
24401;SDS011;12539;48.808;11.292;2022-07-09T02:43:42;0.85;;;0.70;;
24401;SDS011;12539;48.808;11.292;2022-07-09T02:46:11;3.00;;;2.10;;
24401;SDS011;12539;48.808;11.292;2022-07-09T02:48:37;2.10;;;1.10;;
24401;SDS011;12539;48.808;11.292;2022-07-09T02:51:03;3.05;;;1.20;;
24401;SDS011;12539;48.808;11.292;2022-07-09T02:53:29;2.38;;;1.40;;
24401;SDS011;12539;48.808;11.292;2022-07-09T02:55:55;1.08;;;0.80;;
24401;SDS011;12539;48.808;11.292;2022-07-09T02:58:21;1.73;;;1.17;;
24401;SDS011;12539;48.808;11.292;2022-07-09T03:00:46;3.75;;;1.30;;
24401;SDS011;12539;48.808;11.292;2022-07-09T03:03:12;2.22;;;1.00;;
24401;SDS011;12539;48.808;11.292;2022-07-09T03:05:38;1.50;;;0.88;;
24401;SDS011;12539;48.808;11.292;2022-07-09T03:08:04;2.08;;;1.00;;
24401;SDS011;12539;48.808;11.292;2022-07-09T03:10:30;1.60;;;1.00;;
24401;SDS011;12539;48.808;11.292;2022-07-09T03:12:56;7.18;;;1.70;;
24401;SDS011;12539;48.808;11.292;2022-07-09T03:15:22;1.55;;;0.90;;
24401;SDS011;12539;48.808;11.292;2022-07-09T03:17:48;1.00;;;0.90;;
24401;SDS011;12539;48.808;11.292;2022-07-09T03:20:14;2.70;;;0.93;;
24401;SDS011;12539;48.808;11.292;2022-07-09T03:22:40;0.95;;;0.60;;
24401;SDS011;12539;48.808;11.292;2022-07-09T03:25:06;2.13;;;0.90;;
24401;SDS011;12539;48.808;11.292;2022-07-09T03:27:32;1.48;;;1.10;;
24401;SDS011;12539;48.808;11.292;2022-07-09T03:29:58;1.88;;;0.65;;
24401;SDS011;12539;48.808;11.292;2022-07-09T03:32:25;2.38;;;0.80;;
24401;SDS011;12539;48.808;11.292;2022-07-09T03:34:51;2.60;;;0.90;;
24401;SDS011;12539;48.808;11.292;2022-07-09T03:37:20;0.88;;;0.50;;
24401;SDS011;12539;48.808;11.292;2022-07-09T03:39:45;1.00;;;0.70;;
24401;SDS011;12539;48.808;11.292;2022-07-09T03:42:12;4.13;;;1.05;;
24401;SDS011;12539;48.808;11.292;2022-07-09T03:44:38;1.67;;;1.02;;
24401;SDS011;12539;48.808;11.292;2022-07-09T03:47:04;3.80;;;1.30;;
24401;SDS011;12539;48.808;11.292;2022-07-09T03:49:30;2.45;;;1.10;;
24401;SDS011;12539;48.808;11.292;2022-07-09T03:51:56;4.20;;;1.25;;
24401;SDS011;12539;48.808;11.292;2022-07-09T03:54:22;1.83;;;1.08;;
24401;SDS011;12539;48.808;11.292;2022-07-09T03:56:48;4.90;;;1.15;;
24401;SDS011;12539;48.808;11.292;2022-07-09T03:59:14;3.88;;;1.40;;
24401;SDS011;12539;48.808;11.292;2022-07-09T04:01:41;5.15;;;1.70;;
24401;SDS011;12539;48.808;11.292;2022-07-09T04:04:07;2.45;;;1.60;;
24401;SDS011;12539;48.808;11.292;2022-07-09T04:06:33;4.13;;;1.60;;
24401;SDS011;12539;48.808;11.292;2022-07-09T04:08:58;2.30;;;1.55;;
24401;SDS011;12539;48.808;11.292;2022-07-09T04:11:29;2.05;;;1.35;;
24401;SDS011;12539;48.808;11.292;2022-07-09T04:13:55;1.42;;;0.90;;
24401;SDS011;12539;48.808;11.292;2022-07-09T04:16:21;2.03;;;1.30;;
24401;SDS011;12539;48.808;11.292;2022-07-09T04:18:47;3.25;;;1.52;;
24401;SDS011;12539;48.808;11.292;2022-07-09T04:21:13;3.15;;;1.05;;
24401;SDS011;12539;48.808;11.292;2022-07-09T04:23:38;2.80;;;1.08;;
24401;SDS011;12539;48.808;11.292;2022-07-09T04:26:04;2.60;;;1.42;;
24401;SDS011;12539;48.808;11.292;2022-07-09T04:28:29;3.83;;;1.20;;
24401;SDS011;12539;48.808;11.292;2022-07-09T04:30:55;2.60;;;1.67;;
24401;SDS011;12539;48.808;11.292;2022-07-09T04:33:21;3.53;;;1.30;;
24401;SDS011;12539;48.808;11.292;2022-07-09T04:35:47;0.82;;;0.73;;
24401;SDS011;12539;48.808;11.292;2022-07-09T04:38:15;4.65;;;1.58;;
24401;SDS011;12539;48.808;11.292;2022-07-09T04:40:44;3.22;;;1.70;;
24401;SDS011;12539;48.808;11.292;2022-07-09T04:43:13;4.32;;;1.65;;
24401;SDS011;12539;48.808;11.292;2022-07-09T04:45:38;1.85;;;1.33;;
24401;SDS011;12539;48.808;11.292;2022-07-09T04:48:04;3.85;;;1.55;;
24401;SDS011;12539;48.808;11.292;2022-07-09T04:50:31;0.88;;;0.70;;
24401;SDS011;12539;48.808;11.292;2022-07-09T04:52:59;1.25;;;1.08;;
24401;SDS011;12539;48.808;11.292;2022-07-09T04:55:25;1.40;;;0.80;;
24401;SDS011;12539;48.808;11.292;2022-07-09T04:57:50;1.40;;;1.00;;
24401;SDS011;12539;48.808;11.292;2022-07-09T05:00:16;1.70;;;0.80;;
24401;SDS011;12539;48.808;11.292;2022-07-09T05:02:42;3.00;;;1.25;;
24401;SDS011;12539;48.808;11.292;2022-07-09T05:05:09;2.08;;;0.77;;
24401;SDS011;12539;48.808;11.292;2022-07-09T05:07:36;1.58;;;0.98;;
24401;SDS011;12539;48.808;11.292;2022-07-09T05:10:02;1.17;;;0.88;;
24401;SDS011;12539;48.808;11.292;2022-07-09T05:12:31;0.90;;;0.80;;
24401;SDS011;12539;48.808;11.292;2022-07-09T05:14:57;2.22;;;0.93;;
24401;SDS011;12539;48.808;11.292;2022-07-09T05:17:23;1.98;;;1.00;;
24401;SDS011;12539;48.808;11.292;2022-07-09T05:19:49;1.75;;;0.85;;
24401;SDS011;12539;48.808;11.292;2022-07-09T05:22:15;1.80;;;1.00;;
24401;SDS011;12539;48.808;11.292;2022-07-09T05:24:41;1.30;;;0.73;;
24401;SDS011;12539;48.808;11.292;2022-07-09T05:27:07;2.50;;;1.10;;
24401;SDS011;12539;48.808;11.292;2022-07-09T05:29:34;38.60;;;12.13;;
24401;SDS011;12539;48.808;11.292;2022-07-09T05:32:03;11.70;;;4.72;;
24401;SDS011;12539;48.808;11.292;2022-07-09T05:34:29;20.27;;;6.35;;
24401;SDS011;12539;48.808;11.292;2022-07-09T05:36:55;23.98;;;8.13;;
24401;SDS011;12539;48.808;11.292;2022-07-09T05:39:21;22.05;;;8.68;;
24401;SDS011;12539;48.808;11.292;2022-07-09T05:41:47;20.25;;;7.93;;
24401;SDS011;12539;48.808;11.292;2022-07-09T05:44:13;14.20;;;4.90;;
24401;SDS011;12539;48.808;11.292;2022-07-09T05:46:39;9.95;;;4.25;;
24401;SDS011;12539;48.808;11.292;2022-07-09T05:49:05;15.02;;;5.18;;
24401;SDS011;12539;48.808;11.292;2022-07-09T05:51:32;9.73;;;4.00;;
24401;SDS011;12539;48.808;11.292;2022-07-09T05:53:58;9.45;;;4.55;;
24401;SDS011;12539;48.808;11.292;2022-07-09T05:56:23;16.85;;;6.65;;
24401;SDS011;12539;48.808;11.292;2022-07-09T05:58:49;11.82;;;4.97;;
24401;SDS011;12539;48.808;11.292;2022-07-09T06:01:15;15.55;;;6.15;;
24401;SDS011;12539;48.808;11.292;2022-07-09T06:03:41;13.18;;;4.28;;
24401;SDS011;12539;48.808;11.292;2022-07-09T06:06:08;13.60;;;5.43;;
24401;SDS011;12539;48.808;11.292;2022-07-09T06:08:34;6.45;;;3.30;;
24401;SDS011;12539;48.808;11.292;2022-07-09T06:10:59;11.13;;;3.33;;
24401;SDS011;12539;48.808;11.292;2022-07-09T06:13:25;14.95;;;5.10;;
24401;SDS011;12539;48.808;11.292;2022-07-09T06:15:51;12.02;;;3.67;;
24401;SDS011;12539;48.808;11.292;2022-07-09T06:18:17;10.82;;;3.70;;
24401;SDS011;12539;48.808;11.292;2022-07-09T06:20:43;8.07;;;3.83;;
24401;SDS011;12539;48.808;11.292;2022-07-09T06:23:09;10.63;;;3.55;;
24401;SDS011;12539;48.808;11.292;2022-07-09T06:25:35;9.35;;;3.47;;
24401;SDS011;12539;48.808;11.292;2022-07-09T06:28:02;9.10;;;3.85;;
24401;SDS011;12539;48.808;11.292;2022-07-09T06:30:29;6.38;;;2.38;;
24401;SDS011;12539;48.808;11.292;2022-07-09T06:32:54;6.15;;;2.17;;
24401;SDS011;12539;48.808;11.292;2022-07-09T06:35:20;8.10;;;3.15;;
24401;SDS011;12539;48.808;11.292;2022-07-09T06:37:46;6.40;;;2.78;;
24401;SDS011;12539;48.808;11.292;2022-07-09T06:40:12;9.50;;;3.28;;
24401;SDS011;12539;48.808;11.292;2022-07-09T06:42:38;5.85;;;3.08;;
24401;SDS011;12539;48.808;11.292;2022-07-09T06:45:04;3.97;;;1.98;;
24401;SDS011;12539;48.808;11.292;2022-07-09T06:47:30;5.10;;;2.10;;
24401;SDS011;12539;48.808;11.292;2022-07-09T06:49:56;5.68;;;2.08;;
24401;SDS011;12539;48.808;11.292;2022-07-09T06:52:21;6.70;;;2.67;;
24401;SDS011;12539;48.808;11.292;2022-07-09T06:54:47;9.02;;;2.88;;
24401;SDS011;12539;48.808;11.292;2022-07-09T06:57:13;6.05;;;2.88;;
24401;SDS011;12539;48.808;11.292;2022-07-09T06:59:40;8.82;;;2.58;;
24401;SDS011;12539;48.808;11.292;2022-07-09T07:02:06;4.97;;;2.55;;
24401;SDS011;12539;48.808;11.292;2022-07-09T07:04:32;3.53;;;1.60;;
24401;SDS011;12539;48.808;11.292;2022-07-09T07:06:58;3.58;;;1.70;;
24401;SDS011;12539;48.808;11.292;2022-07-09T07:09:23;5.30;;;2.90;;
24401;SDS011;12539;48.808;11.292;2022-07-09T07:11:49;3.85;;;1.20;;
24401;SDS011;12539;48.808;11.292;2022-07-09T07:14:15;5.93;;;2.10;;
24401;SDS011;12539;48.808;11.292;2022-07-09T07:16:42;3.65;;;1.25;;
24401;SDS011;12539;48.808;11.292;2022-07-09T07:19:08;3.88;;;1.20;;
24401;SDS011;12539;48.808;11.292;2022-07-09T07:21:35;4.55;;;1.42;;
24401;SDS011;12539;48.808;11.292;2022-07-09T07:24:02;4.60;;;1.75;;
24401;SDS011;12539;48.808;11.292;2022-07-09T07:26:28;7.75;;;1.70;;
24401;SDS011;12539;48.808;11.292;2022-07-09T07:28:54;3.25;;;1.38;;
24401;SDS011;12539;48.808;11.292;2022-07-09T07:31:19;3.55;;;1.10;;
24401;SDS011;12539;48.808;11.292;2022-07-09T07:33:46;3.83;;;1.30;;
24401;SDS011;12539;48.808;11.292;2022-07-09T07:36:12;4.55;;;1.95;;
24401;SDS011;12539;48.808;11.292;2022-07-09T07:38:38;3.63;;;1.10;;
24401;SDS011;12539;48.808;11.292;2022-07-09T07:41:03;1.98;;;0.88;;
24401;SDS011;12539;48.808;11.292;2022-07-09T07:43:29;3.00;;;1.00;;
24401;SDS011;12539;48.808;11.292;2022-07-09T07:45:55;2.83;;;1.23;;
24401;SDS011;12539;48.808;11.292;2022-07-09T07:48:20;3.22;;;1.40;;
24401;SDS011;12539;48.808;11.292;2022-07-09T07:50:46;4.32;;;1.35;;
24401;SDS011;12539;48.808;11.292;2022-07-09T07:53:12;3.60;;;1.17;;
24401;SDS011;12539;48.808;11.292;2022-07-09T07:55:37;2.85;;;1.00;;
24401;SDS011;12539;48.808;11.292;2022-07-09T07:58:04;2.22;;;1.23;;
24401;SDS011;12539;48.808;11.292;2022-07-09T08:00:30;3.42;;;1.27;;
24401;SDS011;12539;48.808;11.292;2022-07-09T08:02:56;2.40;;;1.00;;
24401;SDS011;12539;48.808;11.292;2022-07-09T08:05:22;3.13;;;1.45;;
24401;SDS011;12539;48.808;11.292;2022-07-09T08:07:48;3.90;;;1.48;;
24401;SDS011;12539;48.808;11.292;2022-07-09T08:10:13;2.55;;;1.20;;
24401;SDS011;12539;48.808;11.292;2022-07-09T08:12:39;3.45;;;1.40;;
24401;SDS011;12539;48.808;11.292;2022-07-09T08:15:05;3.40;;;0.80;;
24401;SDS011;12539;48.808;11.292;2022-07-09T08:17:31;5.85;;;1.42;;
24401;SDS011;12539;48.808;11.292;2022-07-09T08:19:57;2.05;;;1.05;;
24401;SDS011;12539;48.808;11.292;2022-07-09T08:22:23;3.47;;;1.60;;
24401;SDS011;12539;48.808;11.292;2022-07-09T08:24:48;3.25;;;1.30;;
24401;SDS011;12539;48.808;11.292;2022-07-09T08:27:14;2.13;;;1.30;;
24401;SDS011;12539;48.808;11.292;2022-07-09T08:29:40;4.70;;;0.93;;
24401;SDS011;12539;48.808;11.292;2022-07-09T08:32:05;3.70;;;1.20;;
24401;SDS011;12539;48.808;11.292;2022-07-09T08:34:31;2.80;;;1.23;;
24401;SDS011;12539;48.808;11.292;2022-07-09T08:36:57;3.85;;;1.10;;
24401;SDS011;12539;48.808;11.292;2022-07-09T08:39:23;5.93;;;1.73;;
24401;SDS011;12539;48.808;11.292;2022-07-09T08:41:48;3.35;;;1.20;;
24401;SDS011;12539;48.808;11.292;2022-07-09T08:44:15;2.80;;;0.80;;
24401;SDS011;12539;48.808;11.292;2022-07-09T08:46:44;1.55;;;1.20;;
24401;SDS011;12539;48.808;11.292;2022-07-09T08:49:10;2.90;;;1.15;;
24401;SDS011;12539;48.808;11.292;2022-07-09T08:51:39;1.88;;;1.00;;
24401;SDS011;12539;48.808;11.292;2022-07-09T08:54:08;4.15;;;1.30;;
24401;SDS011;12539;48.808;11.292;2022-07-09T08:56:34;2.28;;;0.90;;
24401;SDS011;12539;48.808;11.292;2022-07-09T08:59:00;2.25;;;1.10;;
24401;SDS011;12539;48.808;11.292;2022-07-09T09:01:26;3.13;;;1.02;;
24401;SDS011;12539;48.808;11.292;2022-07-09T09:03:52;2.13;;;0.85;;
24401;SDS011;12539;48.808;11.292;2022-07-09T09:06:21;4.57;;;1.40;;
24401;SDS011;12539;48.808;11.292;2022-07-09T09:08:48;3.13;;;0.98;;
24401;SDS011;12539;48.808;11.292;2022-07-09T09:11:22;2.50;;;1.10;;
24401;SDS011;12539;48.808;11.292;2022-07-09T09:13:50;5.35;;;1.50;;
24401;SDS011;12539;48.808;11.292;2022-07-09T09:16:17;3.25;;;0.90;;
24401;SDS011;12539;48.808;11.292;2022-07-09T09:18:44;1.33;;;0.88;;
24401;SDS011;12539;48.808;11.292;2022-07-09T09:26:11;2.27;;;1.20;;
24401;SDS011;12539;48.808;11.292;2022-07-09T09:28:48;1.83;;;0.80;;
24401;SDS011;12539;48.808;11.292;2022-07-09T09:31:24;2.00;;;0.90;;
24401;SDS011;12539;48.808;11.292;2022-07-09T09:33:54;2.83;;;1.10;;
24401;SDS011;12539;48.808;11.292;2022-07-09T09:39:10;2.80;;;1.13;;
24401;SDS011;12539;48.808;11.292;2022-07-09T09:41:37;3.22;;;0.80;;
24401;SDS011;12539;48.808;11.292;2022-07-09T09:44:04;2.70;;;0.70;;
24401;SDS011;12539;48.808;11.292;2022-07-09T09:46:34;2.55;;;0.80;;
24401;SDS011;12539;48.808;11.292;2022-07-09T09:49:01;1.90;;;1.15;;
24401;SDS011;12539;48.808;11.292;2022-07-09T09:51:31;1.25;;;0.63;;
24401;SDS011;12539;48.808;11.292;2022-07-09T09:54:01;1.88;;;0.82;;
24401;SDS011;12539;48.808;11.292;2022-07-09T09:56:28;1.98;;;0.63;;
24401;SDS011;12539;48.808;11.292;2022-07-09T09:58:55;2.67;;;0.93;;
24401;SDS011;12539;48.808;11.292;2022-07-09T10:01:21;1.65;;;0.80;;
24401;SDS011;12539;48.808;11.292;2022-07-09T10:03:47;2.15;;;0.77;;
24401;SDS011;12539;48.808;11.292;2022-07-09T10:06:14;2.33;;;1.25;;
24401;SDS011;12539;48.808;11.292;2022-07-09T10:08:40;1.08;;;0.75;;
24401;SDS011;12539;48.808;11.292;2022-07-09T10:11:06;2.47;;;0.70;;
24401;SDS011;12539;48.808;11.292;2022-07-09T10:13:31;3.97;;;1.15;;
24401;SDS011;12539;48.808;11.292;2022-07-09T10:15:57;2.40;;;0.80;;
24401;SDS011;12539;48.808;11.292;2022-07-09T10:18:24;1.60;;;0.82;;
24401;SDS011;12539;48.808;11.292;2022-07-09T10:20:54;2.72;;;0.90;;
24401;SDS011;12539;48.808;11.292;2022-07-09T10:23:22;2.60;;;0.70;;
24401;SDS011;12539;48.808;11.292;2022-07-09T10:25:49;2.75;;;0.85;;
24401;SDS011;12539;48.808;11.292;2022-07-09T10:28:18;2.10;;;0.90;;
24401;SDS011;12539;48.808;11.292;2022-07-09T10:30:45;1.75;;;0.70;;
24401;SDS011;12539;48.808;11.292;2022-07-09T10:33:22;1.27;;;0.90;;
24401;SDS011;12539;48.808;11.292;2022-07-09T10:35:50;3.10;;;0.95;;
24401;SDS011;12539;48.808;11.292;2022-07-09T10:38:17;3.15;;;1.00;;
24401;SDS011;12539;48.808;11.292;2022-07-09T10:40:47;3.22;;;1.70;;
24401;SDS011;12539;48.808;11.292;2022-07-09T10:43:36;2.58;;;0.85;;
24401;SDS011;12539;48.808;11.292;2022-07-09T10:46:08;2.67;;;1.08;;
24401;SDS011;12539;48.808;11.292;2022-07-09T10:48:38;3.45;;;0.80;;
24401;SDS011;12539;48.808;11.292;2022-07-09T10:51:05;2.33;;;0.80;;
24401;SDS011;12539;48.808;11.292;2022-07-09T10:53:30;2.28;;;0.82;;
24401;SDS011;12539;48.808;11.292;2022-07-09T10:55:56;1.90;;;0.90;;
24401;SDS011;12539;48.808;11.292;2022-07-09T10:58:24;2.90;;;1.00;;
24401;SDS011;12539;48.808;11.292;2022-07-09T11:00:57;3.00;;;1.20;;
24401;SDS011;12539;48.808;11.292;2022-07-09T11:03:27;2.67;;;0.70;;
24401;SDS011;12539;48.808;11.292;2022-07-09T11:05:54;3.65;;;1.05;;
24401;SDS011;12539;48.808;11.292;2022-07-09T11:08:20;2.10;;;0.75;;
24401;SDS011;12539;48.808;11.292;2022-07-09T11:10:46;3.13;;;0.75;;
24401;SDS011;12539;48.808;11.292;2022-07-09T11:13:12;3.30;;;0.70;;
24401;SDS011;12539;48.808;11.292;2022-07-09T11:15:38;1.80;;;0.60;;
24401;SDS011;12539;48.808;11.292;2022-07-09T11:18:07;4.05;;;0.68;;
24401;SDS011;12539;48.808;11.292;2022-07-09T11:20:44;1.67;;;1.00;;
24401;SDS011;12539;48.808;11.292;2022-07-09T11:23:12;3.97;;;1.20;;
24401;SDS011;12539;48.808;11.292;2022-07-09T11:25:39;3.65;;;1.10;;
24401;SDS011;12539;48.808;11.292;2022-07-09T11:28:05;3.17;;;1.10;;
24401;SDS011;12539;48.808;11.292;2022-07-09T11:30:31;2.90;;;0.88;;
24401;SDS011;12539;48.808;11.292;2022-07-09T11:32:57;0.98;;;0.60;;
24401;SDS011;12539;48.808;11.292;2022-07-09T11:37:55;2.72;;;0.80;;
24401;SDS011;12539;48.808;11.292;2022-07-09T11:40:22;1.55;;;0.60;;
24401;SDS011;12539;48.808;11.292;2022-07-09T11:42:48;3.58;;;1.25;;
24401;SDS011;12539;48.808;11.292;2022-07-09T11:45:26;4.90;;;0.70;;
24401;SDS011;12539;48.808;11.292;2022-07-09T11:48:03;3.53;;;0.77;;
24401;SDS011;12539;48.808;11.292;2022-07-09T11:50:33;1.30;;;0.87;;
24401;SDS011;12539;48.808;11.292;2022-07-09T11:53:22;1.63;;;0.70;;
24401;SDS011;12539;48.808;11.292;2022-07-09T11:55:57;3.60;;;0.93;;
24401;SDS011;12539;48.808;11.292;2022-07-09T11:58:25;2.50;;;1.00;;
24401;SDS011;12539;48.808;11.292;2022-07-09T12:00:51;2.60;;;0.80;;
24401;SDS011;12539;48.808;11.292;2022-07-09T12:03:24;1.67;;;0.70;;
24401;SDS011;12539;48.808;11.292;2022-07-09T12:05:53;2.20;;;0.65;;
24401;SDS011;12539;48.808;11.292;2022-07-09T12:08:26;1.58;;;0.77;;
24401;SDS011;12539;48.808;11.292;2022-07-09T12:10:54;2.08;;;0.90;;
24401;SDS011;12539;48.808;11.292;2022-07-09T12:13:21;3.10;;;0.85;;
24401;SDS011;12539;48.808;11.292;2022-07-09T12:15:46;2.90;;;0.65;;
24401;SDS011;12539;48.808;11.292;2022-07-09T12:18:12;1.50;;;0.80;;
24401;SDS011;12539;48.808;11.292;2022-07-09T12:20:38;1.27;;;0.65;;
24401;SDS011;12539;48.808;11.292;2022-07-09T12:23:04;1.98;;;0.75;;
24401;SDS011;12539;48.808;11.292;2022-07-09T12:25:29;1.52;;;0.50;;
24401;SDS011;12539;48.808;11.292;2022-07-09T12:27:55;1.80;;;0.60;;
24401;SDS011;12539;48.808;11.292;2022-07-09T12:30:21;2.25;;;0.77;;
24401;SDS011;12539;48.808;11.292;2022-07-09T12:32:47;1.23;;;0.57;;
24401;SDS011;12539;48.808;11.292;2022-07-09T12:35:13;1.83;;;0.70;;
24401;SDS011;12539;48.808;11.292;2022-07-09T12:37:39;3.08;;;0.85;;
24401;SDS011;12539;48.808;11.292;2022-07-09T12:40:05;1.58;;;0.60;;
24401;SDS011;12539;48.808;11.292;2022-07-09T12:42:33;1.25;;;0.63;;
24401;SDS011;12539;48.808;11.292;2022-07-09T12:44:59;1.17;;;0.70;;
24401;SDS011;12539;48.808;11.292;2022-07-09T12:47:25;4.03;;;0.70;;
24401;SDS011;12539;48.808;11.292;2022-07-09T12:49:51;2.20;;;0.70;;
24401;SDS011;12539;48.808;11.292;2022-07-09T12:52:17;2.22;;;0.93;;
24401;SDS011;12539;48.808;11.292;2022-07-09T12:54:42;2.63;;;0.80;;
24401;SDS011;12539;48.808;11.292;2022-07-09T12:57:09;2.28;;;1.00;;
24401;SDS011;12539;48.808;11.292;2022-07-09T12:59:35;3.55;;;0.88;;
24401;SDS011;12539;48.808;11.292;2022-07-09T13:02:01;1.85;;;0.57;;
24401;SDS011;12539;48.808;11.292;2022-07-09T13:04:27;2.00;;;0.50;;
24401;SDS011;12539;48.808;11.292;2022-07-09T13:06:53;2.10;;;0.90;;
24401;SDS011;12539;48.808;11.292;2022-07-09T13:09:19;2.00;;;1.00;;
24401;SDS011;12539;48.808;11.292;2022-07-09T13:11:45;3.20;;;0.90;;
24401;SDS011;12539;48.808;11.292;2022-07-09T13:14:10;1.80;;;0.73;;
24401;SDS011;12539;48.808;11.292;2022-07-09T13:16:36;1.67;;;0.80;;
24401;SDS011;12539;48.808;11.292;2022-07-09T13:19:02;3.33;;;0.88;;
24401;SDS011;12539;48.808;11.292;2022-07-09T13:21:28;1.88;;;0.65;;
24401;SDS011;12539;48.808;11.292;2022-07-09T13:23:57;1.42;;;0.80;;
24401;SDS011;12539;48.808;11.292;2022-07-09T13:26:23;1.73;;;0.80;;
24401;SDS011;12539;48.808;11.292;2022-07-09T13:28:49;4.10;;;1.10;;
24401;SDS011;12539;48.808;11.292;2022-07-09T13:31:15;2.42;;;1.02;;
24401;SDS011;12539;48.808;11.292;2022-07-09T13:33:40;3.35;;;1.23;;
24401;SDS011;12539;48.808;11.292;2022-07-09T13:36:06;3.25;;;1.10;;
24401;SDS011;12539;48.808;11.292;2022-07-09T13:38:33;4.90;;;1.15;;
24401;SDS011;12539;48.808;11.292;2022-07-09T13:41:00;3.05;;;1.20;;
24401;SDS011;12539;48.808;11.292;2022-07-09T13:43:26;6.75;;;1.63;;
24401;SDS011;12539;48.808;11.292;2022-07-09T13:45:55;1.70;;;0.90;;
24401;SDS011;12539;48.808;11.292;2022-07-09T13:48:25;2.10;;;1.10;;
24401;SDS011;12539;48.808;11.292;2022-07-09T13:50:51;2.20;;;0.90;;
24401;SDS011;12539;48.808;11.292;2022-07-09T13:53:18;1.75;;;0.95;;
24401;SDS011;12539;48.808;11.292;2022-07-09T13:55:45;2.08;;;0.80;;
24401;SDS011;12539;48.808;11.292;2022-07-09T13:58:11;2.15;;;0.80;;
24401;SDS011;12539;48.808;11.292;2022-07-09T14:00:37;1.48;;;0.77;;
24401;SDS011;12539;48.808;11.292;2022-07-09T14:03:03;1.88;;;0.77;;
24401;SDS011;12539;48.808;11.292;2022-07-09T14:05:29;2.30;;;0.70;;
24401;SDS011;12539;48.808;11.292;2022-07-09T14:07:54;1.27;;;0.70;;
24401;SDS011;12539;48.808;11.292;2022-07-09T14:10:21;3.97;;;0.88;;
24401;SDS011;12539;48.808;11.292;2022-07-09T14:12:47;4.15;;;0.80;;
24401;SDS011;12539;48.808;11.292;2022-07-09T14:15:13;1.92;;;1.00;;
24401;SDS011;12539;48.808;11.292;2022-07-09T14:17:39;3.40;;;0.75;;
24401;SDS011;12539;48.808;11.292;2022-07-09T14:20:06;1.60;;;0.82;;
24401;SDS011;12539;48.808;11.292;2022-07-09T14:22:32;1.73;;;0.57;;
24401;SDS011;12539;48.808;11.292;2022-07-09T14:24:58;2.40;;;1.05;;
24401;SDS011;12539;48.808;11.292;2022-07-09T14:27:24;1.83;;;0.65;;
24401;SDS011;12539;48.808;11.292;2022-07-09T14:29:49;2.10;;;0.70;;
24401;SDS011;12539;48.808;11.292;2022-07-09T14:32:15;1.30;;;0.80;;
24401;SDS011;12539;48.808;11.292;2022-07-09T14:34:41;1.50;;;0.77;;
24401;SDS011;12539;48.808;11.292;2022-07-09T14:37:07;2.47;;;1.27;;
24401;SDS011;12539;48.808;11.292;2022-07-09T14:39:32;1.83;;;0.60;;